Time;durP1;ratioP1;P1;durP2;ratioP2;P2;SDS_P1;SDS_P2;PMS_P1;PMS_P2;Temp;Humidity;BMP_temperature;BMP_pressure;BME280_temperature;BME280_humidity;BME280_pressure;Samples;Min_cycle;Max_cycle;Signal;HPM_P1;HPM_P2
2021/01/03 00:01:18;;;;;;;17.08;13.52;;;0.70;99.90;;;;;;4991215;28;20461;-79
2021/01/03 00:03:45;;;;;;;23.15;13.52;;;0.70;99.90;;;;;;4971789;28;20422;-83
2021/01/03 00:06:16;;;;;;;20.42;14.93;;;0.70;99.90;;;;;;5003499;28;20822;-85
2021/01/03 00:08:43;;;;;;;21.80;15.13;;;0.70;99.90;;;;;;5003020;28;20395;-83
2021/01/03 00:11:09;;;;;;;20.73;14.88;;;0.70;99.90;;;;;;4999393;28;20412;-82
2021/01/03 00:13:35;;;;;;;24.52;15.40;;;0.80;99.90;;;;;;5019384;28;20395;-77
2021/01/03 00:16:01;;;;;;;19.75;14.77;;;0.60;99.90;;;;;;5002020;28;20396;-79
2021/01/03 00:18:27;;;;;;;21.02;14.00;;;0.60;99.90;;;;;;4994564;28;20396;-83
2021/01/03 00:20:52;;;;;;;19.20;14.17;;;0.60;99.90;;;;;;5018045;28;20625;-84
2021/01/03 00:23:19;;;;;;;22.73;15.15;;;0.60;99.90;;;;;;5006912;28;20481;-83
2021/01/03 00:25:44;;;;;;;21.50;15.30;;;0.60;99.90;;;;;;4993188;28;20458;-81
2021/01/03 00:28:10;;;;;;;19.25;13.73;;;0.50;99.90;;;;;;5019209;28;20901;-82
2021/01/03 00:30:39;;;;;;;22.02;14.70;;;0.60;99.90;;;;;;4994980;28;20401;-83
2021/01/03 00:33:05;;;;;;;19.60;14.05;;;0.60;99.90;;;;;;5013629;28;20393;-84
2021/01/03 00:35:32;;;;;;;21.15;13.45;;;0.60;99.90;;;;;;4995210;28;20392;-86
2021/01/03 00:38:00;;;;;;;17.13;12.90;;;0.80;99.90;;;;;;4998594;28;20404;-78
2021/01/03 00:40:28;;;;;;;21.40;14.30;;;0.70;99.90;;;;;;5001503;28;20405;-86
2021/01/03 00:42:54;;;;;;;18.27;13.50;;;0.70;99.90;;;;;;4999585;28;20405;-84
2021/01/03 00:45:20;;;;;;;20.23;13.82;;;0.70;99.90;;;;;;5015947;28;20476;-85
2021/01/03 00:48:06;;;;;;;18.03;12.77;;;0.70;99.90;;;;;;4983252;28;20395;-83
2021/01/03 00:50:32;;;;;;;23.35;15.75;;;0.70;99.90;;;;;;4998636;28;20414;-79
2021/01/03 00:52:57;;;;;;;18.20;14.10;;;0.70;99.90;;;;;;5010578;28;20411;-81
2021/01/03 00:55:24;;;;;;;22.73;15.57;;;0.70;99.90;;;;;;4991028;28;20394;-85
2021/01/03 00:57:53;;;;;;;25.08;15.25;;;0.60;99.90;;;;;;5016956;28;20407;-84
2021/01/03 01:00:25;;;;;;;21.33;15.25;;;0.60;99.90;;;;;;4995596;28;20403;-86
2021/01/03 01:02:51;;;;;;;19.48;14.82;;;0.60;99.90;;;;;;4998549;28;20497;-84
2021/01/03 01:05:17;;;;;;;22.02;15.77;;;0.60;99.90;;;;;;5012364;28;20407;-84
2021/01/03 01:07:43;;;;;;;20.70;15.02;;;0.70;99.90;;;;;;4978419;28;20394;-83
2021/01/03 01:10:11;;;;;;;23.30;15.17;;;0.60;99.90;;;;;;5026532;28;20409;-87
2021/01/03 01:12:37;;;;;;;20.75;15.23;;;0.60;99.90;;;;;;4996232;28;20426;-84
2021/01/03 01:15:14;;;;;;;22.80;14.87;;;0.60;99.90;;;;;;5011767;28;20840;-86
2021/01/03 01:17:41;;;;;;;21.17;15.18;;;0.60;99.90;;;;;;4998639;28;20439;-81
2021/01/03 01:20:07;;;;;;;19.98;14.85;;;0.70;99.90;;;;;;5011869;28;20465;-81
2021/01/03 01:22:33;;;;;;;20.98;14.73;;;0.70;99.90;;;;;;5016161;28;20493;-81
2021/01/03 01:24:59;;;;;;;20.40;14.25;;;0.60;99.90;;;;;;5004223;28;20399;-83
2021/01/03 01:27:24;;;;;;;18.77;13.70;;;0.80;99.90;;;;;;4998259;28;20407;-87
2021/01/03 01:29:50;;;;;;;18.88;13.98;;;0.70;99.90;;;;;;4996369;28;20395;-87
2021/01/03 01:32:16;;;;;;;22.27;15.45;;;0.70;99.90;;;;;;5014011;28;20414;-81
2021/01/03 01:34:42;;;;;;;20.63;14.73;;;0.70;99.90;;;;;;4996170;28;20407;-79
2021/01/03 01:37:07;;;;;;;21.42;14.05;;;0.70;99.90;;;;;;5023541;28;20453;-81
2021/01/03 01:39:33;;;;;;;19.98;14.70;;;0.80;99.90;;;;;;4997709;28;20430;-85
2021/01/03 01:41:59;;;;;;;21.30;14.67;;;0.70;99.90;;;;;;4977560;28;20399;-85
2021/01/03 01:44:24;;;;;;;23.27;15.15;;;0.70;99.90;;;;;;4979654;28;20438;-86
2021/01/03 01:47:00;;;;;;;21.77;15.03;;;0.70;99.90;;;;;;4998130;28;20419;-82
2021/01/03 01:49:26;;;;;;;19.55;14.20;;;0.70;99.90;;;;;;5008106;28;20483;-87
2021/01/03 01:51:52;;;;;;;20.83;14.50;;;0.70;99.90;;;;;;4992470;28;20775;-88
2021/01/03 01:54:28;;;;;;;18.63;13.57;;;0.60;99.90;;;;;;5012726;28;20674;-86
2021/01/03 01:57:05;;;;;;;18.92;13.27;;;0.70;99.90;;;;;;4994548;28;20491;-79
2021/01/03 01:59:34;;;;;;;19.08;14.00;;;0.70;99.90;;;;;;5012054;28;20408;-80
2021/01/03 02:02:41;;;;;;;20.48;13.80;;;0.70;99.90;;;;;;4999247;28;20464;-84
2021/01/03 02:05:19;;;;;;;20.75;13.73;;;0.70;99.90;;;;;;5007487;28;20391;-81
2021/01/03 02:07:44;;;;;;;19.33;13.85;;;0.70;99.90;;;;;;5001003;28;20406;-85
2021/01/03 02:10:10;;;;;;;20.97;13.93;;;0.70;99.90;;;;;;5008501;28;21029;-89
2021/01/03 02:12:38;;;;;;;18.88;12.35;;;0.70;99.90;;;;;;5012142;28;20810;-86
2021/01/03 02:15:09;;;;;;;20.65;13.15;;;0.70;99.90;;;;;;5013299;28;20396;-87
2021/01/03 02:17:34;;;;;;;18.83;13.90;;;0.70;99.90;;;;;;4979733;28;20409;-79
2021/01/03 02:20:00;;;;;;;17.02;13.30;;;0.70;99.90;;;;;;4991606;28;20482;-79
2021/01/03 02:22:36;;;;;;;18.63;12.27;;;0.80;99.90;;;;;;5004105;28;20456;-86
2021/01/03 02:25:10;;;;;;;18.98;13.85;;;0.80;99.90;;;;;;5020613;28;20417;-80
2021/01/03 02:28:03;;;;;;;19.20;14.27;;;0.80;99.90;;;;;;4992657;28;20405;-78
2021/01/03 02:30:28;;;;;;;17.98;12.75;;;0.80;99.90;;;;;;5027669;28;20457;-88
2021/01/03 02:33:30;;;;;;;17.23;13.10;;;0.80;99.90;;;;;;4996747;28;20411;-87
2021/01/03 02:35:59;;;;;;;19.67;12.45;;;0.80;99.90;;;;;;5008177;28;20470;-80
2021/01/03 02:38:25;;;;;;;18.27;13.63;;;0.80;99.90;;;;;;4992224;28;20861;-80
2021/01/03 02:40:51;;;;;;;15.68;13.10;;;0.80;99.90;;;;;;5012761;28;20434;-83
2021/01/03 02:43:16;;;;;;;16.83;13.23;;;0.80;99.90;;;;;;5010168;28;20427;-86
2021/01/03 02:45:42;;;;;;;19.75;13.35;;;0.80;99.90;;;;;;4978178;28;20452;-79
2021/01/03 02:48:19;;;;;;;22.05;13.95;;;0.80;99.90;;;;;;4991769;28;20412;-85
2021/01/03 02:50:45;;;;;;;21.60;14.13;;;0.70;99.90;;;;;;4995156;28;20399;-79
2021/01/03 02:53:14;;;;;;;17.75;12.50;;;0.70;99.90;;;;;;5028903;28;20993;-82
2021/01/03 02:55:39;;;;;;;16.45;13.32;;;0.70;99.90;;;;;;5012805;28;20387;-82
2021/01/03 02:58:05;;;;;;;19.03;12.40;;;0.70;99.90;;;;;;5026668;28;21027;-82
2021/01/03 03:00:33;;;;;;;19.07;13.90;;;0.70;99.90;;;;;;5011965;28;20425;-86
2021/01/03 03:02:59;;;;;;;20.48;13.63;;;0.70;99.90;;;;;;5010525;28;20911;-86
2021/01/03 03:05:25;;;;;;;20.70;13.60;;;0.70;99.90;;;;;;5020533;28;20418;-84
2021/01/03 03:07:51;;;;;;;16.67;13.77;;;0.70;99.90;;;;;;4997940;28;20418;-81
2021/01/03 03:10:17;;;;;;;22.50;14.33;;;0.70;99.90;;;;;;5012307;28;20874;-80
2021/01/03 03:12:57;;;;;;;21.50;14.13;;;0.70;99.90;;;;;;5011781;28;20404;-84
2021/01/03 03:15:24;;;;;;;19.85;13.35;;;0.60;99.90;;;;;;4997160;28;20493;-80
2021/01/03 03:17:50;;;;;;;17.95;13.20;;;0.70;99.90;;;;;;4996554;28;20395;-79
2021/01/03 03:20:16;;;;;;;17.13;12.73;;;0.60;99.90;;;;;;4997684;28;20426;-83
2021/01/03 03:22:45;;;;;;;18.70;12.93;;;0.70;99.90;;;;;;5015662;28;20399;-84
2021/01/03 03:25:11;;;;;;;17.08;13.70;;;0.70;99.90;;;;;;4984426;28;20398;-81
2021/01/03 03:27:40;;;;;;;17.73;12.85;;;0.60;99.90;;;;;;5015175;28;20399;-78
2021/01/03 03:30:10;;;;;;;18.60;12.60;;;0.60;99.90;;;;;;5015675;28;20545;-84
2021/01/03 03:32:38;;;;;;;18.87;12.80;;;0.60;99.90;;;;;;5012671;28;20504;-86
2021/01/03 03:35:05;;;;;;;18.25;13.13;;;0.60;99.90;;;;;;5015102;28;20395;-86
2021/01/03 03:37:30;;;;;;;16.48;12.10;;;0.60;99.90;;;;;;5015129;28;20497;-87
2021/01/03 03:39:56;;;;;;;17.63;12.02;;;0.60;99.90;;;;;;5014825;28;20442;-78
2021/01/03 03:42:22;;;;;;;16.13;11.35;;;0.60;99.90;;;;;;4997660;28;20417;-80
2021/01/03 03:44:48;;;;;;;15.20;10.73;;;0.60;99.90;;;;;;4995315;28;20404;-80
2021/01/03 03:47:13;;;;;;;17.77;11.32;;;0.50;99.90;;;;;;4978378;28;20437;-83
2021/01/03 03:49:39;;;;;;;18.23;11.68;;;0.60;99.90;;;;;;4997655;28;20510;-85
2021/01/03 03:52:05;;;;;;;16.43;11.47;;;0.50;99.90;;;;;;5016072;28;20426;-82
2021/01/03 03:54:31;;;;;;;17.40;11.45;;;0.60;99.90;;;;;;5016130;28;20403;-84
2021/01/03 03:57:00;;;;;;;17.85;11.35;;;0.50;99.90;;;;;;5010874;28;20401;-84
2021/01/03 03:59:26;;;;;;;16.52;11.20;;;0.50;99.90;;;;;;4999479;28;20421;-80
2021/01/03 04:01:52;;;;;;;15.00;11.13;;;0.50;99.90;;;;;;5016390;28;20399;-79
2021/01/03 04:04:18;;;;;;;17.38;11.40;;;0.60;99.90;;;;;;4994544;28;20405;-85
2021/01/03 04:06:43;;;;;;;15.77;11.25;;;0.50;99.90;;;;;;4981797;28;20395;-85
2021/01/03 04:09:13;;;;;;;14.85;10.65;;;0.50;99.90;;;;;;5014204;28;20483;-85
2021/01/03 04:11:42;;;;;;;18.30;11.52;;;0.50;99.90;;;;;;5029892;28;20395;-82
2021/01/03 04:14:12;;;;;;;15.43;11.32;;;0.60;99.90;;;;;;5016592;28;20392;-82
2021/01/03 04:17:11;;;;;;;14.70;10.82;;;0.70;99.90;;;;;;4991369;28;20480;-87
2021/01/03 04:19:36;;;;;;;15.93;10.55;;;0.50;99.90;;;;;;5016034;28;20411;-82
2021/01/03 04:22:04;;;;;;;13.00;10.43;;;0.50;99.90;;;;;;4978339;28;20387;-80
2021/01/03 04:24:30;;;;;;;13.60;10.40;;;0.60;99.90;;;;;;5006836;28;20970;-81
2021/01/03 04:26:57;;;;;;;14.27;10.73;;;0.50;99.90;;;;;;5010453;28;20459;-82
2021/01/03 04:29:23;;;;;;;14.00;10.23;;;0.70;99.90;;;;;;4995947;28;20635;-83
2021/01/03 04:32:00;;;;;;;14.43;11.07;;;0.50;99.90;;;;;;5016971;28;20392;-83
2021/01/03 04:34:26;;;;;;;15.00;10.10;;;0.50;99.90;;;;;;5028948;28;20427;-81
2021/01/03 04:36:52;;;;;;;13.60;10.10;;;0.50;99.90;;;;;;4999259;28;20952;-82
2021/01/03 04:39:18;;;;;;;13.27;10.52;;;0.70;99.90;;;;;;5008911;28;20409;-81
2021/01/03 04:41:43;;;;;;;15.90;10.25;;;0.60;99.90;;;;;;5011277;28;20400;-80
2021/01/03 04:44:22;;;;;;;12.50;9.52;;;0.50;99.90;;;;;;5029388;28;20421;-87
2021/01/03 04:46:48;;;;;;;16.58;10.88;;;0.50;99.90;;;;;;4995197;28;20422;-83
2021/01/03 04:49:23;;;;;;;14.82;10.80;;;0.50;99.90;;;;;;5004290;28;20778;-82
2021/01/03 04:52:40;;;;;;;13.63;9.93;;;0.50;99.90;;;;;;5011202;28;20408;-84
2021/01/03 04:55:29;;;;;;;14.32;10.23;;;0.50;99.90;;;;;;4943484;28;20423;-88
2021/01/03 04:57:57;;;;;;;15.30;11.38;;;0.50;99.90;;;;;;4949555;28;20439;-86
2021/01/03 05:00:30;;;;;;;18.55;10.95;;;0.60;99.90;;;;;;4983118;28;21095;-80
2021/01/03 05:03:17;;;;;;;14.65;10.27;;;0.50;99.90;;;;;;5009861;28;20413;-83
2021/01/03 05:05:46;;;;;;;14.27;10.65;;;0.50;99.90;;;;;;5008329;28;20399;-78
2021/01/03 05:08:30;;;;;;;16.50;11.40;;;0.50;99.90;;;;;;4996878;28;20767;-88
2021/01/03 05:10:58;;;;;;;16.30;11.02;;;0.60;99.90;;;;;;4994884;28;20415;-83
2021/01/03 05:13:38;;;;;;;16.75;10.98;;;0.50;99.90;;;;;;4995042;28;20395;-89
2021/01/03 05:16:04;;;;;;;17.25;11.23;;;0.50;99.90;;;;;;5007675;28;20492;-79
2021/01/03 05:18:30;;;;;;;15.77;11.10;;;0.50;99.90;;;;;;5008277;28;20399;-84
2021/01/03 05:20:57;;;;;;;16.70;11.75;;;0.50;99.90;;;;;;4994662;28;20404;-89
2021/01/03 05:23:25;;;;;;;17.02;11.25;;;0.50;99.90;;;;;;5017482;28;20483;-87
2021/01/03 05:25:51;;;;;;;13.95;10.95;;;0.50;99.90;;;;;;5029420;28;20491;-84
2021/01/03 05:28:25;;;;;;;16.23;11.57;;;0.60;99.90;;;;;;4994135;28;20465;-84
2021/01/03 05:30:51;;;;;;;15.18;11.00;;;0.50;99.90;;;;;;5010225;28;20776;-87
2021/01/03 05:33:27;;;;;;;14.17;10.47;;;0.50;99.90;;;;;;5013101;28;20433;-85
2021/01/03 05:35:53;;;;;;;16.92;11.45;;;0.50;99.90;;;;;;5004624;28;20399;-85
2021/01/03 05:38:40;;;;;;;18.13;11.00;;;0.50;99.90;;;;;;5011116;28;20477;-83
2021/01/03 05:41:37;;;;;;;15.50;11.38;;;0.50;99.90;;;;;;5002605;28;20480;-90
2021/01/03 05:44:13;;;;;;;13.80;10.30;;;0.50;99.90;;;;;;4999031;28;20395;-81
2021/01/03 05:46:44;;;;;;;15.68;11.35;;;0.50;99.90;;;;;;5013669;28;20432;-79
2021/01/03 05:49:12;;;;;;;13.68;10.43;;;0.50;99.90;;;;;;4994287;28;20403;-87
2021/01/03 05:51:46;;;;;;;15.75;10.88;;;0.60;99.90;;;;;;5028646;28;20411;-86
2021/01/03 05:54:33;;;;;;;15.07;10.40;;;0.50;99.90;;;;;;5011013;28;20399;-80
2021/01/03 05:57:06;;;;;;;14.90;10.38;;;0.60;99.90;;;;;;4994753;28;20488;-86
2021/01/03 05:59:31;;;;;;;13.00;10.13;;;0.60;99.90;;;;;;4995706;28;20415;-81
2021/01/03 06:02:19;;;;;;;15.77;10.40;;;0.50;99.90;;;;;;5012517;28;20383;-81
2021/01/03 06:04:44;;;;;;;15.15;10.00;;;0.60;99.90;;;;;;5001428;28;20410;-88
2021/01/03 06:07:25;;;;;;;13.63;9.97;;;0.60;99.90;;;;;;4995591;28;20399;-82
2021/01/03 06:09:51;;;;;;;12.93;9.63;;;0.60;99.90;;;;;;5015779;28;20414;-83
2021/01/03 06:12:22;;;;;;;10.18;8.70;;;0.60;99.90;;;;;;4997506;28;20407;-82
2021/01/03 06:14:51;;;;;;;13.30;9.85;;;0.70;99.90;;;;;;5000800;28;20895;-86
2021/01/03 06:17:27;;;;;;;12.70;9.43;;;0.70;99.90;;;;;;5000955;28;20414;-83
2021/01/03 06:19:55;;;;;;;13.88;9.25;;;0.70;99.90;;;;;;5014825;28;20403;-86
2021/01/03 06:22:48;;;;;;;11.80;8.87;;;0.70;99.90;;;;;;4999520;28;20395;-84
2021/01/03 06:25:43;;;;;;;14.48;8.88;;;0.70;99.90;;;;;;5013234;28;20449;-81
2021/01/03 06:28:12;;;;;;;12.48;8.95;;;0.70;99.90;;;;;;4998449;28;20403;-92
2021/01/03 06:30:43;;;;;;;13.57;9.07;;;0.70;99.90;;;;;;5034301;28;20403;-86
2021/01/03 06:33:24;;;;;;;13.70;8.67;;;0.70;99.90;;;;;;5033634;28;20399;-88
2021/01/03 06:35:56;;;;;;;12.65;8.60;;;0.70;99.90;;;;;;5048278;28;20431;-78
2021/01/03 06:39:00;;;;;;;12.30;7.97;;;0.70;99.90;;;;;;4999314;28;20399;-87
2021/01/03 06:41:51;;;;;;;11.98;7.72;;;0.70;99.90;;;;;;5028180;28;20403;-79
2021/01/03 06:45:06;;;;;;;11.90;8.40;;;0.70;99.90;;;;;;4996560;28;20738;-84
2021/01/03 06:47:43;;;;;;;9.93;6.90;;;0.80;99.90;;;;;;4976443;28;20453;-76
2021/01/03 06:50:26;;;;;;;11.93;7.70;;;0.70;99.90;;;;;;5027659;28;20502;-81
2021/01/03 06:53:29;;;;;;;8.85;7.32;;;0.80;99.90;;;;;;5027881;28;20464;-79
2021/01/03 06:56:42;;;;;;;10.77;8.27;;;0.80;99.90;;;;;;4995308;28;20918;-84
2021/01/03 06:59:26;;;;;;;12.30;7.87;;;0.70;99.90;;;;;;4913834;29;20504;-83
2021/01/03 07:01:51;;;;;;;9.65;7.53;;;0.70;99.90;;;;;;5020883;28;20455;-83
2021/01/03 07:04:31;;;;;;;9.23;6.93;;;0.80;99.90;;;;;;4977658;28;20990;-80
2021/01/03 07:06:58;;;;;;;11.27;7.07;;;0.80;99.90;;;;;;5010535;28;20460;-78
2021/01/03 07:09:24;;;;;;;10.48;7.25;;;0.80;99.90;;;;;;4994173;28;21104;-82
2021/01/03 07:11:57;;;;;;;11.10;7.75;;;0.80;99.90;;;;;;5008969;28;20395;-84
2021/01/03 07:14:23;;;;;;;8.00;6.77;;;0.80;99.90;;;;;;4989479;28;20403;-87
2021/01/03 07:16:50;;;;;;;10.07;7.07;;;0.80;99.90;;;;;;5030210;28;20469;-81
2021/01/03 07:19:24;;;;;;;13.50;8.07;;;0.80;99.90;;;;;;5034129;28;20460;-87
2021/01/03 07:21:49;;;;;;;11.75;7.95;;;0.80;99.90;;;;;;5010513;28;20970;-82
2021/01/03 07:24:24;;;;;;;10.27;7.57;;;0.70;99.90;;;;;;4980307;28;20485;-86
2021/01/03 07:27:24;;;;;;;10.52;7.55;;;0.70;99.90;;;;;;4997953;28;20496;-85
2021/01/03 07:30:11;;;;;;;10.32;7.10;;;0.70;99.90;;;;;;5045049;28;20419;-81
2021/01/03 07:32:37;;;;;;;10.07;7.40;;;0.70;99.90;;;;;;5005306;28;20466;-82
2021/01/03 07:35:06;;;;;;;8.23;7.20;;;0.70;99.90;;;;;;5029552;28;20388;-83
2021/01/03 07:37:32;;;;;;;11.03;6.90;;;0.80;99.90;;;;;;5028769;28;20408;-85
2021/01/03 07:40:07;;;;;;;10.85;6.90;;;0.70;99.90;;;;;;5014123;28;20418;-83
2021/01/03 07:42:34;;;;;;;8.05;7.03;;;0.70;99.90;;;;;;4986151;28;20417;-86
2021/01/03 07:45:01;;;;;;;7.75;6.40;;;0.60;99.90;;;;;;5030104;28;20476;-83
2021/01/03 07:47:38;;;;;;;8.63;6.53;;;0.60;99.90;;;;;;4999119;28;20393;-78
2021/01/03 07:50:38;;;;;;;8.52;6.50;;;0.60;99.90;;;;;;5007386;28;20459;-83
2021/01/03 07:53:29;;;;;;;7.32;6.40;;;0.60;99.90;;;;;;5012857;28;20399;-81
2021/01/03 07:56:11;;;;;;;7.35;6.47;;;0.70;99.90;;;;;;5031497;28;20391;-77
2021/01/03 07:58:37;;;;;;;7.63;6.18;;;0.70;99.90;;;;;;5002586;28;20766;-78
2021/01/03 08:01:02;;;;;;;8.47;6.70;;;0.80;99.90;;;;;;5018109;28;20396;-85
2021/01/03 08:03:28;;;;;;;8.33;6.27;;;0.70;99.90;;;;;;4994886;28;20479;-88
2021/01/03 08:06:02;;;;;;;8.60;6.30;;;0.70;99.90;;;;;;5013609;28;20406;-81
2021/01/03 08:08:28;;;;;;;8.07;6.35;;;0.70;99.90;;;;;;5013879;28;21837;-81
2021/01/03 08:11:32;;;;;;;6.80;6.10;;;0.70;99.90;;;;;;4996896;28;20395;-82
2021/01/03 08:14:01;;;;;;;7.35;5.55;;;0.70;99.90;;;;;;4983018;28;20426;-77
2021/01/03 08:16:27;;;;;;;7.05;5.80;;;0.70;99.90;;;;;;5011626;28;20413;-81
2021/01/03 08:19:03;;;;;;;8.77;5.82;;;0.70;99.90;;;;;;4996637;28;20399;-78
2021/01/03 08:21:30;;;;;;;7.00;5.50;;;0.70;99.90;;;;;;4996623;28;20402;-81
2021/01/03 08:24:12;;;;;;;6.37;5.40;;;0.70;99.90;;;;;;5010656;28;20419;-77
2021/01/03 08:26:43;;;;;;;7.88;5.75;;;0.70;99.90;;;;;;5028379;28;20812;-78
2021/01/03 08:29:34;;;;;;;7.22;5.88;;;0.70;99.90;;;;;;5008770;28;20477;-78
2021/01/03 08:32:00;;;;;;;6.60;5.07;;;0.60;99.90;;;;;;4981733;28;20481;-79
2021/01/03 08:34:31;;;;;;;7.30;5.43;;;0.70;99.90;;;;;;4995343;28;20407;-80
2021/01/03 08:36:56;;;;;;;8.45;5.35;;;0.70;99.90;;;;;;4975432;28;20510;-79
2021/01/03 08:39:24;;;;;;;9.88;5.40;;;0.70;99.90;;;;;;4993861;28;21149;-77
2021/01/03 08:42:00;;;;;;;8.68;5.28;;;0.70;99.90;;;;;;4993107;28;20423;-79
2021/01/03 08:44:34;;;;;;;6.82;5.30;;;0.80;99.90;;;;;;4995274;28;20402;-79
2021/01/03 08:47:07;;;;;;;6.25;5.28;;;0.70;99.90;;;;;;4991715;28;20413;-75
2021/01/03 08:49:33;;;;;;;7.85;5.18;;;0.70;99.90;;;;;;4996875;28;20415;-80
2021/01/03 08:52:18;;;;;;;6.05;5.10;;;0.70;99.90;;;;;;5029574;28;20395;-80
2021/01/03 08:54:46;;;;;;;5.43;4.60;;;0.70;99.90;;;;;;5021840;28;21127;-75
2021/01/03 08:57:12;;;;;;;7.93;4.97;;;0.70;99.90;;;;;;5021260;28;20400;-79
2021/01/03 08:59:37;;;;;;;6.35;4.80;;;0.70;99.90;;;;;;5012245;28;20399;-78
2021/01/03 09:02:03;;;;;;;5.70;4.88;;;0.70;99.90;;;;;;5013942;28;21123;-81
2021/01/03 09:04:28;;;;;;;5.53;4.93;;;0.70;99.90;;;;;;4995669;28;20748;-76
2021/01/03 09:06:59;;;;;;;7.78;5.28;;;0.80;99.90;;;;;;5003385;28;20779;-81
2021/01/03 09:09:27;;;;;;;7.28;4.88;;;0.80;99.90;;;;;;5000310;28;20401;-76
2021/01/03 09:12:06;;;;;;;6.90;5.22;;;0.80;99.90;;;;;;4994864;28;20911;-75
2021/01/03 09:14:36;;;;;;;6.28;5.05;;;0.70;99.90;;;;;;4971199;28;20615;-77
2021/01/03 09:17:13;;;;;;;7.80;5.07;;;0.80;99.90;;;;;;4984997;28;20472;-76
2021/01/03 09:19:54;;;;;;;7.40;5.40;;;0.90;99.90;;;;;;5042037;28;20443;-76
2021/01/03 09:22:32;;;;;;;6.07;5.03;;;0.80;99.90;;;;;;5008141;28;20446;-79
2021/01/03 09:25:08;;;;;;;6.38;5.25;;;0.80;99.90;;;;;;5008053;28;21345;-80
2021/01/03 09:27:34;;;;;;;6.27;5.23;;;0.80;99.90;;;;;;5009186;28;20405;-77
2021/01/03 09:30:21;;;;;;;6.63;4.93;;;0.80;99.90;;;;;;5008953;28;20892;-76
2021/01/03 09:32:50;;;;;;;6.10;5.45;;;0.80;99.90;;;;;;5011420;28;20427;-75
2021/01/03 09:35:51;;;;;;;6.82;5.75;;;0.90;99.90;;;;;;5011618;28;20403;-80
2021/01/03 09:38:20;;;;;;;7.40;5.75;;;0.90;99.90;;;;;;5031899;28;20407;-78
2021/01/03 09:41:00;;;;;;;6.75;5.63;;;0.90;99.90;;;;;;4999506;28;20929;-74
2021/01/03 09:43:26;;;;;;;8.05;6.03;;;0.90;99.90;;;;;;4970566;28;20422;-83
2021/01/03 09:45:56;;;;;;;9.47;5.83;;;0.90;99.90;;;;;;5044575;28;20626;-78
2021/01/03 09:48:33;;;;;;;7.45;6.20;;;0.90;99.90;;;;;;5011817;28;20388;-75
2021/01/03 09:51:07;;;;;;;8.43;6.63;;;0.90;99.90;;;;;;5007451;28;20486;-77
2021/01/03 09:53:34;;;;;;;7.90;5.75;;;0.90;99.90;;;;;;5032285;28;21217;-75
2021/01/03 09:56:35;;;;;;;7.90;6.28;;;1.00;99.90;;;;;;4992675;28;20973;-82
2021/01/03 09:59:17;;;;;;;7.65;6.20;;;1.00;99.90;;;;;;4996332;28;21259;-75
2021/01/03 10:01:45;;;;;;;8.10;6.10;;;1.00;99.90;;;;;;5007775;28;20415;-77
2021/01/03 10:04:26;;;;;;;7.78;6.22;;;1.00;99.90;;;;;;5026465;28;20497;-77
2021/01/03 10:06:54;;;;;;;7.50;6.00;;;1.00;99.90;;;;;;5006197;28;20395;-83
2021/01/03 10:09:31;;;;;;;8.65;6.00;;;1.00;99.90;;;;;;4997246;28;20407;-78
2021/01/03 10:11:57;;;;;;;10.57;6.40;;;1.00;99.90;;;;;;4991646;28;20453;-81
2021/01/03 10:14:36;;;;;;;8.68;6.85;;;1.00;99.90;;;;;;4993867;28;20403;-76
2021/01/03 10:17:21;;;;;;;7.53;6.03;;;1.00;99.90;;;;;;4970711;28;20391;-79
2021/01/03 10:19:47;;;;;;;12.38;6.30;;;1.00;99.90;;;;;;5008699;28;20900;-75
2021/01/03 10:22:30;;;;;;;8.77;6.60;;;1.00;99.90;;;;;;5008161;28;20502;-86
2021/01/03 10:24:57;;;;;;;8.30;6.47;;;1.00;99.90;;;;;;5010435;28;20470;-84
2021/01/03 10:27:23;;;;;;;11.82;6.57;;;1.00;99.90;;;;;;5010690;28;20399;-77
2021/01/03 10:29:49;;;;;;;9.57;7.18;;;1.00;99.90;;;;;;4980226;28;20396;-77
2021/01/03 10:32:15;;;;;;;9.97;6.93;;;1.00;99.90;;;;;;5009132;28;20403;-80
2021/01/03 10:34:41;;;;;;;8.82;6.03;;;0.90;99.90;;;;;;4999109;28;20405;-80
2021/01/03 10:37:07;;;;;;;9.82;6.60;;;0.90;99.90;;;;;;5003697;28;20403;-79
2021/01/03 10:39:33;;;;;;;7.93;6.47;;;1.00;99.90;;;;;;4996637;28;20425;-78
2021/01/03 10:42:00;;;;;;;8.02;6.47;;;1.00;99.90;;;;;;4995022;28;20907;-85
2021/01/03 10:44:26;;;;;;;8.93;6.43;;;1.00;99.90;;;;;;4994081;28;20438;-79
2021/01/03 10:46:53;;;;;;;9.67;6.70;;;1.00;99.90;;;;;;4993674;28;20401;-83
2021/01/03 10:49:19;;;;;;;7.50;6.25;;;1.00;99.90;;;;;;4998357;28;20771;-86
2021/01/03 10:51:46;;;;;;;7.25;6.28;;;1.00;99.90;;;;;;4994677;28;20411;-79
2021/01/03 10:54:23;;;;;;;7.50;6.07;;;1.00;99.90;;;;;;4996478;28;20401;-80
2021/01/03 10:56:50;;;;;;;7.10;5.95;;;1.00;99.90;;;;;;5009103;28;20398;-82
2021/01/03 10:59:16;;;;;;;7.70;5.95;;;1.00;99.90;;;;;;4995167;28;20403;-83
2021/01/03 11:01:42;;;;;;;7.13;5.77;;;1.00;99.90;;;;;;4995170;28;20445;-80
2021/01/03 11:04:08;;;;;;;13.68;6.70;;;1.10;99.90;;;;;;5027332;28;21284;-80
2021/01/03 11:06:39;;;;;;;9.20;6.55;;;1.00;99.90;;;;;;5009170;28;20399;-81
2021/01/03 11:09:05;;;;;;;9.55;6.80;;;1.10;99.90;;;;;;4992733;28;20407;-84
2021/01/03 11:11:31;;;;;;;9.68;6.13;;;1.10;99.90;;;;;;4995062;28;20415;-87
2021/01/03 11:13:57;;;;;;;6.50;5.80;;;1.00;99.90;;;;;;5008962;28;20399;-79
2021/01/03 11:16:34;;;;;;;7.63;5.93;;;1.00;99.90;;;;;;4996297;28;20392;-86
2021/01/03 11:19:00;;;;;;;8.45;6.47;;;1.00;99.90;;;;;;4998914;28;20403;-84
2021/01/03 11:21:26;;;;;;;8.93;6.05;;;1.00;99.90;;;;;;4997466;28;20495;-89
2021/01/03 11:23:52;;;;;;;8.30;6.07;;;1.00;99.90;;;;;;5011726;28;20832;-82
2021/01/03 11:26:25;;;;;;;7.47;6.10;;;1.10;99.90;;;;;;4995500;28;20391;-78
2021/01/03 11:28:51;;;;;;;7.68;5.90;;;1.10;99.90;;;;;;5017295;28;20411;-81
2021/01/03 11:31:20;;;;;;;8.45;6.60;;;1.10;99.90;;;;;;5033391;28;20394;-82
2021/01/03 11:33:48;;;;;;;8.65;5.60;;;1.10;99.90;;;;;;5002512;28;20415;-79
2021/01/03 11:36:17;;;;;;;6.85;5.80;;;1.10;99.90;;;;;;5002179;28;20406;-83
2021/01/03 11:38:44;;;;;;;9.05;6.13;;;1.10;99.90;;;;;;4986885;28;20400;-79
2021/01/03 11:41:13;;;;;;;6.15;5.47;;;1.10;99.90;;;;;;4985026;28;20437;-83
2021/01/03 11:43:39;;;;;;;8.00;6.13;;;1.10;99.90;;;;;;5005970;28;20401;-81
2021/01/03 11:46:05;;;;;;;8.38;6.15;;;1.00;99.90;;;;;;4971534;28;20474;-78
2021/01/03 11:48:31;;;;;;;6.45;5.50;;;1.00;99.90;;;;;;4993079;28;20395;-83
2021/01/03 11:50:57;;;;;;;6.05;5.45;;;1.10;99.90;;;;;;4982191;28;21268;-82
2021/01/03 11:53:23;;;;;;;8.30;6.00;;;1.10;99.90;;;;;;5007882;28;20965;-80
2021/01/03 11:55:48;;;;;;;7.78;5.75;;;1.10;99.90;;;;;;4982322;28;20403;-82
2021/01/03 11:58:14;;;;;;;6.68;5.50;;;1.10;99.90;;;;;;4995027;28;20438;-81
2021/01/03 12:00:40;;;;;;;8.43;5.93;;;1.10;99.90;;;;;;5016644;28;20549;-83
2021/01/03 12:03:06;;;;;;;7.10;6.28;;;1.10;99.90;;;;;;4985995;28;20421;-84
2021/01/03 12:05:34;;;;;;;5.85;5.25;;;1.10;99.90;;;;;;5002296;28;20418;-81
2021/01/03 12:08:00;;;;;;;9.20;6.67;;;1.20;99.90;;;;;;4992469;28;20466;-87
2021/01/03 12:10:27;;;;;;;9.15;6.05;;;1.10;99.90;;;;;;5000088;28;20430;-86
2021/01/03 12:12:53;;;;;;;9.07;6.32;;;1.20;99.90;;;;;;4970235;28;20476;-82
2021/01/03 12:15:19;;;;;;;8.57;5.90;;;1.10;99.90;;;;;;5015804;28;20435;-86
2021/01/03 12:17:44;;;;;;;6.43;5.67;;;1.10;99.90;;;;;;4998509;28;20418;-82
2021/01/03 12:20:11;;;;;;;8.38;6.38;;;1.10;99.90;;;;;;5013644;28;20407;-81
2021/01/03 12:22:37;;;;;;;9.07;6.10;;;1.10;99.90;;;;;;5014642;28;20493;-80
2021/01/03 12:25:04;;;;;;;8.30;5.95;;;1.10;99.90;;;;;;5004314;28;20446;-82
2021/01/03 12:27:29;;;;;;;7.35;5.75;;;1.10;99.90;;;;;;5008501;28;20391;-85
2021/01/03 12:29:55;;;;;;;8.63;6.00;;;1.20;99.90;;;;;;5021282;28;20428;-81
2021/01/03 12:32:21;;;;;;;8.50;6.83;;;1.20;99.90;;;;;;4997942;28;20490;-80
2021/01/03 12:34:47;;;;;;;7.97;6.05;;;1.20;99.90;;;;;;4996468;28;20395;-82
2021/01/03 12:37:14;;;;;;;9.43;6.28;;;1.30;99.90;;;;;;4996557;28;20453;-81
2021/01/03 12:39:40;;;;;;;8.13;5.60;;;1.20;99.90;;;;;;5014840;28;20402;-82
2021/01/03 12:42:10;;;;;;;8.50;6.05;;;1.30;99.90;;;;;;5011172;28;20493;-77
2021/01/03 12:44:36;;;;;;;7.90;5.35;;;1.30;99.90;;;;;;5003992;28;20399;-80
2021/01/03 12:47:05;;;;;;;8.45;5.93;;;1.30;99.90;;;;;;4996238;28;20395;-81
2021/01/03 12:49:31;;;;;;;6.63;5.72;;;1.30;99.90;;;;;;5018040;28;20418;-77
2021/01/03 12:51:57;;;;;;;7.05;6.15;;;1.40;99.90;;;;;;5013606;28;20396;-78
2021/01/03 12:54:23;;;;;;;8.70;6.70;;;1.30;99.90;;;;;;5011683;28;20399;-79
2021/01/03 12:56:48;;;;;;;7.97;6.40;;;1.40;99.90;;;;;;4996555;28;20458;-79
2021/01/03 12:59:14;;;;;;;8.05;6.05;;;1.30;99.90;;;;;;5028740;28;20411;-77
2021/01/03 13:01:43;;;;;;;8.85;6.25;;;1.30;99.90;;;;;;4990862;28;20415;-79
2021/01/03 13:04:08;;;;;;;6.97;6.00;;;1.30;99.90;;;;;;5011538;28;20490;-77
2021/01/03 13:06:34;;;;;;;8.73;6.60;;;1.30;99.90;;;;;;4995058;28;20449;-75